Terminal Aerodrome Forecast
Issued by NWS

Home | Current Version | Previous Version | Text Only | Print | Product List | Glossary On
Versions: 1 2 3 4 5 6 7 8 9 10 11 12 13
000
FTUS46 KSEW 272300
TAFHQM
TAF
KHQM 272320Z 2800/2824 06010KT P6SM SCT250
     FM280800 18012KT P6SM OVC010
     FM281300 22012KT P6SM -RA BKN020 OVC035
     FM281700 25012KT P6SM -SHRA BKN025 BKN040
     FM282200 27012KT P6SM VCSH SCT025 BKN045=

USA.gov is the U.S. government's official web portal to all federal, state and local government web resources and services.